Time;durP1;ratioP1;P1;durP2;ratioP2;P2;SDS_P1;SDS_P2;PMS_P1;PMS_P2;Temp;Humidity;BMP_temperature;BMP_pressure;BME280_temperature;BME280_humidity;BME280_pressure;Samples;Min_cycle;Max_cycle;Signal;HPM_P1;HPM_P2
2021/11/02 00:00:40;;;;;;;4.30;1.40;;;;;;;;;;5034574;28;20068;-57
2021/11/02 00:03:08;;;;;;;5.00;1.42;;;;;;;;;;5035247;28;20442;-55
2021/11/02 00:05:36;;;;;;;4.82;1.60;;;;;;;;;;5034312;28;20080;-56
2021/11/02 00:08:05;;;;;;;5.95;1.70;;;;;;;;;;5034498;28;20579;-61
2021/11/02 00:10:32;;;;;;;4.18;1.88;;;;;;;;;;5034228;28;20393;-59
2021/11/02 00:12:59;;;;;;;2.80;1.38;;;;;;;;;;5034442;28;20107;-55
2021/11/02 00:15:32;;;;;;;3.15;1.50;;;;;;;;;;5034130;28;20140;-57
2021/11/02 00:18:03;;;;;;;4.40;1.83;;;;;;;;;;5034213;28;20100;-56
2021/11/02 00:20:30;;;;;;;5.22;1.45;;;;;;;;;;5034472;28;20442;-57
2021/11/02 00:22:58;;;;;;;3.55;1.80;;;;;;;;;;5034180;28;20057;-59
2021/11/02 00:25:29;;;;;;;8.23;3.40;;;;;;;;;;5034354;28;20120;-59
2021/11/02 00:27:57;;;;;;;5.43;1.60;;;;;;;;;;5034140;28;20049;-57
2021/11/02 00:30:24;;;;;;;8.13;3.50;;;;;;;;;;5034090;28;20053;-58
2021/11/02 00:32:55;;;;;;;7.60;2.70;;;;;;;;;;5034072;28;20046;-57
2021/11/02 00:35:23;;;;;;;6.78;2.13;;;;;;;;;;5034106;28;20116;-59
2021/11/02 00:37:51;;;;;;;6.20;2.00;;;;;;;;;;5033780;28;20061;-59
2021/11/02 00:40:19;;;;;;;4.85;1.80;;;;;;;;;;5033895;28;20085;-55
2021/11/02 00:42:52;;;;;;;5.32;1.25;;;;;;;;;;5033888;28;20050;-58
2021/11/02 00:45:28;;;;;;;3.35;1.40;;;;;;;;;;5033836;28;20125;-54
2021/11/02 00:47:55;;;;;;;4.47;2.20;;;;;;;;;;5033635;28;20056;-56
2021/11/02 00:50:23;;;;;;;4.47;1.75;;;;;;;;;;5033684;28;20530;-56
2021/11/02 00:52:50;;;;;;;4.63;1.52;;;;;;;;;;5033753;28;20395;-56
2021/11/02 00:55:17;;;;;;;5.15;1.70;;;;;;;;;;5033504;28;20490;-54
2021/11/02 00:57:44;;;;;;;5.75;1.90;;;;;;;;;;5033524;28;20324;-58
2021/11/02 01:00:15;;;;;;;4.60;1.52;;;;;;;;;;5033528;28;20053;-57
2021/11/02 01:02:41;;;;;;;;;;;;;;;;;;5033816;28;20055;-57
2021/11/02 01:05:11;;;;;;;6.38;2.10;;;;;;;;;;5033187;28;19921;-56
2021/11/02 01:07:38;;;;;;;5.38;2.38;;;;;;;;;;5033399;28;20483;-54
2021/11/02 01:10:12;;;;;;;8.60;2.20;;;;;;;;;;5033474;28;20449;-59
2021/11/02 01:12:39;;;;;;;4.88;1.83;;;;;;;;;;5033289;28;20049;-59
2021/11/02 01:15:07;;;;;;;6.15;2.55;;;;;;;;;;5033080;28;20045;-57
2021/11/02 01:17:36;;;;;;;4.72;2.10;;;;;;;;;;5033108;28;20053;-56
2021/11/02 01:20:04;;;;;;;6.70;2.58;;;;;;;;;;5033041;28;20049;-58
2021/11/02 01:22:31;;;;;;;6.45;2.20;;;;;;;;;;5032995;28;20056;-56
2021/11/02 01:24:58;;;;;;;6.68;2.83;;;;;;;;;;5032786;28;20049;-54
2021/11/02 01:27:25;;;;;;;6.13;3.28;;;;;;;;;;5033116;28;20502;-55
2021/11/02 01:29:51;;;;;;;6.25;2.70;;;;;;;;;;5032689;28;20049;-57
2021/11/02 01:32:18;;;;;;;9.13;3.03;;;;;;;;;;5032896;28;20053;-56
2021/11/02 01:34:47;;;;;;;7.60;3.45;;;;;;;;;;5032764;28;20414;-57
2021/11/02 01:37:14;;;;;;;6.57;2.25;;;;;;;;;;5032734;28;20056;-57
2021/11/02 01:39:41;;;;;;;5.65;2.40;;;;;;;;;;5032662;28;20053;-53
2021/11/02 01:42:08;;;;;;;6.88;2.58;;;;;;;;;;5032678;28;20056;-56
2021/11/02 01:44:36;;;;;;;6.07;2.38;;;;;;;;;;5032522;28;20053;-60
2021/11/02 01:47:04;;;;;;;5.72;2.35;;;;;;;;;;5032379;28;20418;-56
2021/11/02 01:49:34;;;;;;;5.28;2.00;;;;;;;;;;5032558;28;20053;-58
2021/11/02 01:52:02;;;;;;;4.00;1.98;;;;;;;;;;5032649;28;20140;-57
2021/11/02 01:54:29;;;;;;;4.63;1.88;;;;;;;;;;5032607;28;20049;-54
2021/11/02 01:56:56;;;;;;;3.33;1.45;;;;;;;;;;5032109;28;20076;-54
2021/11/02 01:59:26;;;;;;;4.35;1.88;;;;;;;;;;5032301;28;20049;-54
2021/11/02 02:02:01;;;;;;;4.03;1.80;;;;;;;;;;5032465;28;20119;-57
2021/11/02 02:04:47;;;;;;;5.13;2.15;;;;;;;;;;5032134;28;20057;-57
2021/11/02 02:07:24;;;;;;;5.55;2.10;;;;;;;;;;5032951;28;20152;-57
2021/11/02 02:09:59;;;;;;;4.82;2.25;;;;;;;;;;5032180;28;20049;-56
2021/11/02 02:12:38;;;;;;;3.13;1.70;;;;;;;;;;5032175;28;20050;-55
2021/11/02 02:18:33;;;;;;;4.45;1.85;;;;;;;;;;5030299;28;20120;-56
2021/11/02 02:21:16;;;;;;;4.25;1.67;;;;;;;;;;5031985;28;20057;-58
2021/11/02 02:24:11;;;;;;;3.75;1.98;;;;;;;;;;5031882;28;20075;-59
2021/11/02 02:26:47;;;;;;;3.97;1.85;;;;;;;;;;5031724;28;20112;-55
2021/11/02 02:29:16;;;;;;;5.22;2.13;;;;;;;;;;5031947;28;20076;-53
2021/11/02 02:31:44;;;;;;;4.50;1.95;;;;;;;;;;5031902;28;20049;-57
2021/11/02 02:34:15;;;;;;;6.43;2.83;;;;;;;;;;5031841;28;20426;-58
2021/11/02 02:36:44;;;;;;;4.45;2.10;;;;;;;;;;5032072;28;20057;-59
2021/11/02 02:39:13;;;;;;;5.65;2.08;;;;;;;;;;5031514;28;20045;-58
2021/11/02 02:41:41;;;;;;;6.18;2.25;;;;;;;;;;5031820;28;20058;-57
2021/11/02 02:44:10;;;;;;;5.35;2.47;;;;;;;;;;5031748;28;20065;-57
2021/11/02 02:46:39;;;;;;;5.38;2.30;;;;;;;;;;5031552;28;20415;-58
2021/11/02 02:49:09;;;;;;;4.10;1.98;;;;;;;;;;5031655;28;20053;-59
2021/11/02 02:51:36;;;;;;;3.80;1.83;;;;;;;;;;5031700;28;20054;-56
2021/11/02 02:54:03;;;;;;;4.43;2.10;;;;;;;;;;5031889;28;20046;-56
2021/11/02 02:56:33;;;;;;;4.85;1.90;;;;;;;;;;5031696;28;20510;-56
2021/11/02 02:59:03;;;;;;;4.82;1.90;;;;;;;;;;5034978;28;20080;-57
2021/11/02 03:01:30;;;;;;;4.75;1.98;;;;;;;;;;5036028;28;20457;-56
2021/11/02 03:04:02;;;;;;;4.97;2.10;;;;;;;;;;5035627;28;20045;-53
2021/11/02 03:06:34;;;;;;;3.40;1.67;;;;;;;;;;5035805;28;20810;-57
2021/11/02 03:09:01;;;;;;;5.95;1.75;;;;;;;;;;5035538;28;20418;-57
2021/11/02 03:11:29;;;;;;;4.65;2.08;;;;;;;;;;5035477;28;20056;-56
2021/11/02 03:13:58;;;;;;;5.28;1.85;;;;;;;;;;5035493;28;20046;-51
2021/11/02 03:16:37;;;;;;;5.00;1.73;;;;;;;;;;5035360;28;20065;-58
2021/11/02 03:19:42;;;;;;;5.32;1.92;;;;;;;;;;5035277;28;20054;-56
2021/11/02 03:50:20;;;;;;;5.05;1.85;;;;;;;;;;5034785;28;20064;-58
2021/11/02 03:55:41;;;;;;;4.53;1.45;;;;;;;;;;5034619;28;20064;-56
2021/11/02 03:58:14;;;;;;;4.68;2.10;;;;;;;;;;5034668;28;20051;-57
2021/11/02 04:01:04;;;;;;;3.63;1.83;;;;;;;;;;5034706;28;20132;-55
2021/11/02 04:23:46;;;;;;;4.00;1.70;;;;;;;;;;5034707;28;20065;-55
2021/11/02 05:08:06;;;;;;;4.70;2.17;;;;;;;;;;5033221;28;20111;-57
2021/11/02 05:13:54;;;;;;;7.10;3.90;;;;;;;;;;5002507;28;20056;-59
2021/11/02 05:46:48;;;;;;;9.55;4.05;;;;;;;;;;5032940;28;20048;-55
2021/11/02 05:49:26;;;;;;;9.80;4.70;;;;;;;;;;5033106;28;20046;-56
2021/11/02 05:55:10;;;;;;;7.82;3.72;;;;;;;;;;5032749;28;20056;-56
2021/11/02 05:57:42;;;;;;;10.20;3.80;;;;;;;;;;5032762;28;20084;-55
2021/11/02 06:00:14;;;;;;;9.82;3.65;;;;;;;;;;5033172;28;20072;-55
2021/11/02 06:02:50;;;;;;;8.35;3.33;;;;;;;;;;5032746;28;20064;-56
2021/11/02 06:05:41;;;;;;;6.32;2.33;;;;;;;;;;5032562;28;20061;-56
2021/11/02 06:23:16;;;;;;;4.88;2.17;;;;;;;;;;5022120;28;20156;-55
2021/11/02 06:28:18;;;;;;;4.20;1.90;;;;;;;;;;5032384;28;20111;-52
2021/11/02 06:30:49;;;;;;;9.18;2.35;;;;;;;;;;5032523;28;20084;-57
2021/11/02 06:33:27;;;;;;;4.65;2.50;;;;;;;;;;5032563;28;20506;-55
2021/11/02 06:36:04;;;;;;;4.90;1.80;;;;;;;;;;5032080;28;20053;-56
2021/11/02 06:44:26;;;;;;;5.35;1.98;;;;;;;;;;5032466;28;20194;-57
2021/11/02 06:53:14;;;;;;;6.35;1.90;;;;;;;;;;5032412;28;20102;-53
2021/11/02 06:56:17;;;;;;;6.32;3.42;;;;;;;;;;5032472;28;20054;-56
2021/11/02 06:59:15;;;;;;;5.30;2.35;;;;;;;;;;5032184;28;20050;-58
2021/11/02 07:16:02;;;;;;;19.80;11.55;;;;;;;;;;5032171;28;20414;-55
2021/11/02 07:18:32;;;;;;;5.85;2.17;;;;;;;;;;5032438;28;20050;-59
2021/11/02 07:21:06;;;;;;;2.88;1.45;;;;;;;;;;5031973;28;20049;-57
2021/11/02 07:23:41;;;;;;;3.38;1.60;;;;;;;;;;5032246;28;20145;-60
2021/11/02 08:47:10;;;;;;;4.65;1.48;;;;;;;;;;5034593;28;20081;-60
2021/11/02 08:49:42;;;;;;;6.80;2.30;;;;;;;;;;5034344;28;20107;-59
2021/11/02 08:52:11;;;;;;;8.93;4.75;;;;;;;;;;5033957;28;20144;-56
2021/11/02 08:54:38;;;;;;;7.38;1.85;;;;;;;;;;5033625;28;20049;-60
2021/11/02 08:57:06;;;;;;;6.65;2.47;;;;;;;;;;5033808;28;20092;-62
2021/11/02 08:59:33;;;;;;;4.88;1.63;;;;;;;;;;5033626;28;20056;-62
2021/11/02 09:02:04;;;;;;;4.18;1.33;;;;;;;;;;5033435;28;20113;-61
2021/11/02 09:04:33;;;;;;;2.03;1.20;;;;;;;;;;5033672;28;20042;-61
2021/11/02 09:07:03;;;;;;;7.53;1.90;;;;;;;;;;5033437;28;20482;-61
2021/11/02 09:09:36;;;;;;;6.32;2.53;;;;;;;;;;5033592;28;20057;-58
2021/11/02 09:12:05;;;;;;;3.45;1.50;;;;;;;;;;5033977;28;20053;-61
2021/11/02 09:14:37;;;;;;;4.07;1.45;;;;;;;;;;5034377;28;20494;-61
2021/11/02 09:17:05;;;;;;;4.78;1.63;;;;;;;;;;5034172;28;20122;-61
2021/11/02 09:19:35;;;;;;;3.47;1.55;;;;;;;;;;5034496;28;20076;-62
2021/11/02 09:22:04;;;;;;;4.18;1.23;;;;;;;;;;5033870;28;20085;-61
2021/11/02 09:24:33;;;;;;;6.93;2.08;;;;;;;;;;5033953;28;20060;-60
2021/11/02 09:27:01;;;;;;;3.63;2.00;;;;;;;;;;5034399;28;20053;-61
2021/11/02 09:29:29;;;;;;;3.97;1.23;;;;;;;;;;5034264;28;20433;-61
2021/11/02 09:31:57;;;;;;;5.22;1.40;;;;;;;;;;5034044;28;20076;-61
2021/11/02 09:34:24;;;;;;;4.28;1.13;;;;;;;;;;5033392;28;20049;-62
2021/11/02 09:36:56;;;;;;;7.15;1.30;;;;;;;;;;5033580;28;20054;-61
2021/11/02 09:39:25;;;;;;;4.32;1.23;;;;;;;;;;5033284;28;20050;-62
2021/11/02 09:42:49;;;;;;;4.20;1.20;;;;;;;;;;5033091;28;20057;-61
2021/11/02 09:45:47;;;;;;;18.42;10.77;;;;;;;;;;5002859;28;20060;-62
2021/11/02 09:48:51;;;;;;;4.72;2.22;;;;;;;;;;5033055;28;20057;-61
2021/11/02 09:51:46;;;;;;;4.72;1.35;;;;;;;;;;5033003;28;20049;-60
2021/11/02 09:54:39;;;;;;;2.45;1.10;;;;;;;;;;5033124;28;20045;-62
2021/11/02 09:57:28;;;;;;;5.22;1.17;;;;;;;;;;5033036;28;20064;-61
2021/11/02 10:00:10;;;;;;;4.43;1.58;;;;;;;;;;5032812;28;20054;-62
2021/11/02 10:03:09;;;;;;;3.88;1.25;;;;;;;;;;5032975;28;20049;-62
2021/11/02 10:05:49;;;;;;;9.95;1.60;;;;;;;;;;5032983;28;20045;-62
2021/11/02 10:08:33;;;;;;;;;;;;;;;;;;5033049;28;20103;-62
2021/11/02 10:11:03;;;;;;;4.60;1.35;;;;;;;;;;5032557;28;20271;-61
2021/11/02 10:14:14;;;;;;;3.30;0.90;;;;;;;;;;5032971;28;20049;-62
2021/11/02 10:17:01;;;;;;;3.70;0.90;;;;;;;;;;5032749;28;20099;-61
2021/11/02 10:20:00;;;;;;;6.20;1.20;;;;;;;;;;5032895;28;20053;-62
2021/11/02 10:22:43;;;;;;;5.07;1.15;;;;;;;;;;5032943;28;20513;-64
2021/11/02 10:25:13;;;;;;;2.75;1.08;;;;;;;;;;5032688;28;20132;-62
2021/11/02 10:28:33;;;;;;;9.27;1.75;;;;;;;;;;5032536;28;20045;-62
2021/11/02 10:31:02;;;;;;;3.07;1.20;;;;;;;;;;5029066;28;20053;-62
2021/11/02 10:33:33;;;;;;;6.40;1.42;;;;;;;;;;5032539;28;20057;-61
2021/11/02 10:36:07;;;;;;;;;;;;;;;;;;5033299;28;20128;-61
2021/11/02 10:38:43;;;;;;;6.85;2.53;;;;;;;;;;5032634;28;19921;-60
2021/11/02 10:41:19;;;;;;;2.40;0.88;;;;;;;;;;5032385;28;20576;-62
2021/11/02 10:44:15;;;;;;;5.13;1.30;;;;;;;;;;5032380;28;20057;-62
2021/11/02 10:46:57;;;;;;;5.43;1.40;;;;;;;;;;5031923;28;20045;-61
2021/11/02 10:49:35;;;;;;;3.35;0.80;;;;;;;;;;5032191;28;20499;-61
2021/11/02 10:52:04;;;;;;;3.38;1.08;;;;;;;;;;5031946;28;20053;-61
2021/11/02 10:54:53;;;;;;;3.85;1.05;;;;;;;;;;5032198;28;20060;-61
2021/11/02 10:57:32;;;;;;;5.75;1.48;;;;;;;;;;5032092;28;20113;-63
2021/11/02 11:00:02;;;;;;;6.85;2.10;;;;;;;;;;5032029;28;20050;-62
2021/11/02 11:02:30;;;;;;;6.38;1.70;;;;;;;;;;5031756;28;20049;-63
2021/11/02 11:05:00;;;;;;;3.50;1.00;;;;;;;;;;5031915;28;20077;-63
2021/11/02 11:07:27;;;;;;;6.18;1.20;;;;;;;;;;5031903;28;20410;-61
2021/11/02 11:09:56;;;;;;;2.22;0.85;;;;;;;;;;5031951;28;20416;-61
2021/11/02 11:12:23;;;;;;;3.75;1.25;;;;;;;;;;5031819;28;20049;-60
2021/11/02 11:14:54;;;;;;;8.75;4.72;;;;;;;;;;5031814;28;20127;-62
2021/11/02 11:17:28;;;;;;;10.35;5.47;;;;;;;;;;5031934;28;20053;-60
2021/11/02 11:20:12;;;;;;;5.03;1.00;;;;;;;;;;5035214;28;20099;-61
2021/11/02 11:22:41;;;;;;;8.73;2.78;;;;;;;;;;5036352;28;20049;-62
2021/11/02 11:25:15;;;;;;;4.32;1.17;;;;;;;;;;5036212;28;20060;-62
2021/11/02 11:27:51;;;;;;;2.75;1.05;;;;;;;;;;5036064;28;20394;-61
2021/11/02 11:30:19;;;;;;;3.38;1.00;;;;;;;;;;5035784;28;20103;-61
2021/11/02 11:32:48;;;;;;;4.65;1.30;;;;;;;;;;5035700;28;20053;-62
2021/11/02 11:35:16;;;;;;;4.07;1.30;;;;;;;;;;5035351;28;20053;-63
2021/11/02 11:37:45;;;;;;;3.28;1.23;;;;;;;;;;5035814;28;20510;-62
2021/11/02 11:40:14;;;;;;;3.30;1.15;;;;;;;;;;5035597;28;20045;-62
2021/11/02 11:42:41;;;;;;;4.03;1.38;;;;;;;;;;5035644;28;20053;-63
2021/11/02 11:45:11;;;;;;;3.47;1.20;;;;;;;;;;5035510;28;20049;-61
2021/11/02 11:47:42;;;;;;;3.97;1.20;;;;;;;;;;5035252;28;20132;-62
2021/11/02 11:50:28;;;;;;;4.95;1.42;;;;;;;;;;5035542;28;20501;-62
2021/11/02 11:53:00;;;;;;;7.75;2.17;;;;;;;;;;5035257;28;20447;-61
2021/11/02 11:55:29;;;;;;;7.57;1.70;;;;;;;;;;5035730;28;20469;-62
2021/11/02 11:58:11;;;;;;;8.38;2.38;;;;;;;;;;5035458;28;20049;-64
2021/11/02 12:00:41;;;;;;;5.70;2.80;;;;;;;;;;5035197;28;20065;-62
2021/11/02 12:03:26;;;;;;;6.30;1.70;;;;;;;;;;5035160;28;20399;-64
2021/11/02 12:06:02;;;;;;;6.18;1.60;;;;;;;;;;5035403;28;20453;-63
2021/11/02 12:08:38;;;;;;;7.72;1.83;;;;;;;;;;5035177;28;20056;-62
2021/11/02 12:11:07;;;;;;;6.43;1.92;;;;;;;;;;5035579;28;20053;-63
2021/11/02 12:13:41;;;;;;;5.57;1.70;;;;;;;;;;5035975;28;20529;-63
2021/11/02 12:16:22;;;;;;;8.10;1.80;;;;;;;;;;5035815;28;20064;-63
2021/11/02 12:18:56;;;;;;;4.10;1.58;;;;;;;;;;5017013;28;20080;-62
2021/11/02 12:21:28;;;;;;;5.53;1.80;;;;;;;;;;5035047;28;20057;-62
2021/11/02 12:24:01;;;;;;;5.70;1.42;;;;;;;;;;5035257;28;20139;-62
2021/11/02 12:26:45;;;;;;;17.02;7.15;;;;;;;;;;5035697;28;20491;-63
2021/11/02 12:29:18;;;;;;;6.18;1.83;;;;;;;;;;5034936;28;20056;-62
2021/11/02 12:31:47;;;;;;;3.22;1.10;;;;;;;;;;5035085;28;20574;-63
2021/11/02 12:34:16;;;;;;;3.67;1.35;;;;;;;;;;5035088;28;20473;-61
2021/11/02 12:36:48;;;;;;;8.30;2.85;;;;;;;;;;5035192;28;20077;-62
2021/11/02 12:39:20;;;;;;;4.03;1.20;;;;;;;;;;5035073;28;20526;-62
2021/11/02 12:41:52;;;;;;;3.35;1.27;;;;;;;;;;5035044;28;20049;-62
2021/11/02 12:44:25;;;;;;;6.30;1.35;;;;;;;;;;5035106;28;20045;-63
2021/11/02 12:46:52;;;;;;;4.78;1.48;;;;;;;;;;5035605;28;20092;-61
2021/11/02 12:49:32;;;;;;;8.20;2.13;;;;;;;;;;5034801;28;20398;-64
2021/11/02 12:52:06;;;;;;;5.22;1.23;;;;;;;;;;5035356;28;20100;-65
2021/11/02 12:54:34;;;;;;;4.47;1.65;;;;;;;;;;5035260;28;20050;-62
2021/11/02 12:57:04;;;;;;;4.40;1.40;;;;;;;;;;5035017;28;20052;-64
2021/11/02 12:59:39;;;;;;;5.07;1.60;;;;;;;;;;5034756;28;20076;-63
2021/11/02 13:02:16;;;;;;;10.50;4.55;;;;;;;;;;5035090;28;20046;-63
2021/11/02 13:04:45;;;;;;;5.40;2.00;;;;;;;;;;5034853;28;20160;-63
2021/11/02 13:07:14;;;;;;;6.28;1.95;;;;;;;;;;5034963;28;20422;-62
2021/11/02 13:09:42;;;;;;;2.67;1.10;;;;;;;;;;5034872;28;20060;-63
2021/11/02 13:12:11;;;;;;;5.78;1.90;;;;;;;;;;5034522;28;20058;-62
2021/11/02 13:14:40;;;;;;;5.60;2.50;;;;;;;;;;5034361;28;20053;-63
2021/11/02 13:17:09;;;;;;;9.40;3.97;;;;;;;;;;5034163;28;20052;-60
2021/11/02 13:19:38;;;;;;;3.05;1.30;;;;;;;;;;5033667;28;20053;-61
2021/11/02 13:22:10;;;;;;;3.90;1.02;;;;;;;;;;5034041;28;20140;-61
2021/11/02 13:24:38;;;;;;;2.40;1.00;;;;;;;;;;5034244;28;20049;-61
2021/11/02 13:27:08;;;;;;;1.85;0.82;;;;;;;;;;5033668;28;20054;-62
2021/11/02 13:29:35;;;;;;;1.73;0.90;;;;;;;;;;5033748;28;20053;-61
2021/11/02 13:32:04;;;;;;;2.25;1.00;;;;;;;;;;5034058;28;20057;-61
2021/11/02 13:34:39;;;;;;;2.25;0.80;;;;;;;;;;5033814;28;20128;-62
2021/11/02 13:37:09;;;;;;;2.42;0.90;;;;;;;;;;5034067;28;20057;-63
2021/11/02 13:39:53;;;;;;;;;;;;;;;;;;5034085;28;20474;-60
2021/11/02 13:42:41;;;;;;;7.75;2.90;;;;;;;;;;5032790;28;19920;-61
2021/11/02 13:45:12;;;;;;;4.18;1.10;;;;;;;;;;5033310;28;20049;-62
2021/11/02 13:47:41;;;;;;;3.80;1.40;;;;;;;;;;5033996;28;20054;-62
2021/11/02 13:50:09;;;;;;;11.45;1.77;;;;;;;;;;5033642;28;20057;-62
2021/11/02 13:52:36;;;;;;;3.45;1.83;;;;;;;;;;5033265;28;20517;-61
2021/11/02 13:55:05;;;;;;;3.70;1.38;;;;;;;;;;5033097;28;20057;-64
2021/11/02 13:57:32;;;;;;;3.40;1.55;;;;;;;;;;5033296;28;20071;-62
2021/11/02 13:59:59;;;;;;;1.90;0.98;;;;;;;;;;5033449;28;20060;-60
2021/11/02 14:02:28;;;;;;;3.72;1.27;;;;;;;;;;5033266;28;20050;-64
2021/11/02 14:04:57;;;;;;;2.25;0.82;;;;;;;;;;5032955;28;20072;-61
2021/11/02 14:07:26;;;;;;;2.53;1.08;;;;;;;;;;5033310;28;20045;-61
2021/11/02 14:09:55;;;;;;;1.85;0.70;;;;;;;;;;5033548;28;20080;-62
2021/11/02 14:12:26;;;;;;;3.10;0.98;;;;;;;;;;5033245;28;20137;-63
2021/11/02 14:14:53;;;;;;;;;;;;;;;;;;5033321;28;20430;-61
2021/11/02 14:17:22;;;;;;;1.98;0.95;;;;;;;;;;5033505;28;19921;-62
2021/11/02 14:19:49;;;;;;;3.05;1.00;;;;;;;;;;5033069;28;20050;-61
2021/11/02 14:22:36;;;;;;;4.28;1.48;;;;;;;;;;5033140;28;20103;-61
2021/11/02 14:25:11;;;;;;;2.70;1.30;;;;;;;;;;5033349;28;20051;-61
2021/11/02 14:27:46;;;;;;;2.65;0.98;;;;;;;;;;5034021;28;20092;-62
2021/11/02 14:30:22;;;;;;;2.03;0.90;;;;;;;;;;5033123;28;20080;-62
2021/11/02 14:32:53;;;;;;;11.40;1.58;;;;;;;;;;5033245;28;20053;-61
2021/11/02 14:35:49;;;;;;;2.92;0.88;;;;;;;;;;5032924;28;20053;-61
2021/11/02 14:38:18;;;;;;;1.92;0.73;;;;;;;;;;5033349;28;20115;-62
2021/11/02 14:40:46;;;;;;;2.03;1.00;;;;;;;;;;5033086;28;20482;-61
2021/11/02 14:43:35;;;;;;;2.55;1.40;;;;;;;;;;5033169;28;20127;-62
2021/11/02 14:46:04;;;;;;;4.95;1.60;;;;;;;;;;5026406;28;20054;-64
2021/11/02 14:48:42;;;;;;;2.40;1.20;;;;;;;;;;5032834;28;20054;-62
2021/11/02 14:51:27;;;;;;;2.72;1.02;;;;;;;;;;5032833;28;20400;-61
2021/11/02 14:53:59;;;;;;;3.50;1.02;;;;;;;;;;5036200;28;20054;-63
2021/11/02 14:56:31;;;;;;;2.35;1.15;;;;;;;;;;5036664;28;20144;-61
2021/11/02 14:59:02;;;;;;;2.42;1.20;;;;;;;;;;5036536;28;20046;-61
2021/11/02 15:02:04;;;;;;;2.13;1.00;;;;;;;;;;5036669;28;20413;-59
2021/11/02 15:04:31;;;;;;;2.03;1.10;;;;;;;;;;5035163;28;20060;-58
2021/11/02 15:07:02;;;;;;;3.38;1.15;;;;;;;;;;5036495;28;20049;-61
2021/11/02 15:09:32;;;;;;;3.13;1.17;;;;;;;;;;5036412;28;20092;-61
2021/11/02 15:12:00;;;;;;;9.52;3.38;;;;;;;;;;5036504;28;20057;-61
2021/11/02 15:14:30;;;;;;;1.83;1.08;;;;;;;;;;5036373;28;20167;-64
2021/11/02 15:17:00;;;;;;;2.25;0.98;;;;;;;;;;5036527;28;20060;-61
2021/11/02 15:19:29;;;;;;;3.80;1.10;;;;;;;;;;5036743;28;20046;-62
2021/11/02 15:21:59;;;;;;;2.03;1.17;;;;;;;;;;5036650;28;20045;-61
2021/11/02 15:24:27;;;;;;;3.35;1.17;;;;;;;;;;5036177;28;20045;-60
2021/11/02 15:26:57;;;;;;;2.80;1.23;;;;;;;;;;5035883;28;20132;-59
2021/11/02 15:29:26;;;;;;;3.72;1.50;;;;;;;;;;5035870;28;20085;-62
2021/11/02 15:31:59;;;;;;;4.28;1.73;;;;;;;;;;5035949;28;20052;-61
2021/11/02 15:34:37;;;;;;;3.88;1.55;;;;;;;;;;5035982;28;20099;-61
2021/11/02 15:37:06;;;;;;;2.78;1.50;;;;;;;;;;5035663;28;20053;-60
2021/11/02 15:39:34;;;;;;;3.88;1.90;;;;;;;;;;5035516;28;20061;-61
2021/11/02 15:42:04;;;;;;;3.50;1.85;;;;;;;;;;5035220;28;20050;-60
2021/11/02 15:44:31;;;;;;;3.57;1.63;;;;;;;;;;5035149;28;20490;-58
2021/11/02 15:47:00;;;;;;;3.95;1.85;;;;;;;;;;5035337;28;20057;-59
2021/11/02 15:49:27;;;;;;;5.60;2.20;;;;;;;;;;5035791;28;20088;-61
2021/11/02 15:51:56;;;;;;;4.75;2.08;;;;;;;;;;5035677;28;20414;-59
2021/11/02 15:54:26;;;;;;;6.60;2.60;;;;;;;;;;5035788;28;20045;-60
2021/11/02 15:56:54;;;;;;;5.38;2.88;;;;;;;;;;5035420;28;20144;-59
2021/11/02 15:59:26;;;;;;;5.68;2.35;;;;;;;;;;5035618;28;20049;-60
2021/11/02 16:01:54;;;;;;;4.72;2.30;;;;;;;;;;5035490;28;20059;-60
2021/11/02 16:04:24;;;;;;;4.38;2.05;;;;;;;;;;5034709;28;20046;-60
2021/11/02 16:07:12;;;;;;;4.75;2.33;;;;;;;;;;5035430;28;20060;-60
2021/11/02 16:09:54;;;;;;;3.88;2.03;;;;;;;;;;5029415;28;20053;-60
2021/11/02 16:12:32;;;;;;;3.83;2.05;;;;;;;;;;5035442;28;20092;-62
2021/11/02 16:15:09;;;;;;;5.10;2.20;;;;;;;;;;5035172;28;20061;-62
2021/11/02 16:17:40;;;;;;;3.38;1.70;;;;;;;;;;5035693;28;20057;-61
2021/11/02 16:20:14;;;;;;;6.82;2.22;;;;;;;;;;5035380;28;20045;-61
2021/11/02 16:22:55;;;;;;;5.03;2.55;;;;;;;;;;5035434;28;20045;-59
2021/11/02 16:25:22;;;;;;;12.23;3.80;;;;;;;;;;5035226;28;20057;-60
2021/11/02 16:27:55;;;;;;;7.38;3.42;;;;;;;;;;5035151;28;20068;-60
2021/11/02 16:30:24;;;;;;;11.60;4.90;;;;;;;;;;5034792;28;20058;-59
2021/11/02 16:32:54;;;;;;;6.93;2.90;;;;;;;;;;5034932;28;20045;-59
2021/11/02 16:35:41;;;;;;;5.05;2.38;;;;;;;;;;5035005;28;20060;-60
2021/11/02 16:38:19;;;;;;;5.93;2.40;;;;;;;;;;5035410;28;20053;-61
2021/11/02 16:40:46;;;;;;;4.93;1.95;;;;;;;;;;5034921;28;20056;-61
2021/11/02 16:43:13;;;;;;;9.30;2.58;;;;;;;;;;5034788;28;20384;-60
2021/11/02 16:45:41;;;;;;;4.20;2.17;;;;;;;;;;5035001;28;20049;-58
2021/11/02 16:48:09;;;;;;;6.47;2.25;;;;;;;;;;5035176;28;20050;-60
2021/11/02 16:50:39;;;;;;;13.00;2.88;;;;;;;;;;5034441;28;20049;-58
2021/11/02 16:53:25;;;;;;;4.28;1.90;;;;;;;;;;5034929;28;20085;-60
2021/11/02 16:55:52;;;;;;;8.13;2.33;;;;;;;;;;5034089;28;20060;-58
2021/11/02 16:58:26;;;;;;;5.15;1.85;;;;;;;;;;5034244;28;20056;-57
2021/11/02 17:01:20;;;;;;;4.95;2.03;;;;;;;;;;5034015;28;20059;-60
2021/11/02 17:03:47;;;;;;;5.30;2.40;;;;;;;;;;5034020;28;20054;-61
2021/11/02 17:06:18;;;;;;;5.32;2.28;;;;;;;;;;5034057;28;20103;-59
2021/11/02 17:09:11;;;;;;;8.18;2.75;;;;;;;;;;5034273;28;20077;-59
2021/11/02 17:11:50;;;;;;;5.38;2.20;;;;;;;;;;5025186;28;20045;-61
2021/11/02 17:14:17;;;;;;;8.02;2.80;;;;;;;;;;5033949;28;20045;-60
2021/11/02 17:16:50;;;;;;;5.05;2.33;;;;;;;;;;5032712;28;20055;-60
2021/11/02 17:19:19;;;;;;;5.28;2.72;;;;;;;;;;5033910;28;20045;-60
2021/11/02 17:21:49;;;;;;;6.22;2.90;;;;;;;;;;5033561;28;20133;-60
2021/11/02 17:24:17;;;;;;;6.25;2.78;;;;;;;;;;5033711;28;20088;-56
2021/11/02 17:26:45;;;;;;;7.70;3.30;;;;;;;;;;5033606;28;20053;-59
2021/11/02 17:29:12;;;;;;;7.88;3.50;;;;;;;;;;5033844;28;20132;-61
2021/11/02 17:31:41;;;;;;;7.55;3.25;;;;;;;;;;5033985;28;20526;-60
2021/11/02 17:34:09;;;;;;;6.88;3.42;;;;;;;;;;5033488;28;20051;-61
2021/11/02 17:36:37;;;;;;;8.05;3.50;;;;;;;;;;5033577;28;20046;-60
2021/11/02 17:39:06;;;;;;;6.07;3.13;;;;;;;;;;5033538;28;20049;-59
2021/11/02 17:41:35;;;;;;;6.65;4.00;;;;;;;;;;5055442;23;20501;-61
2021/11/02 17:44:02;;;;;;;7.95;3.67;;;;;;;;;;5052867;28;20461;-61
2021/11/02 17:46:31;;;;;;;6.18;2.50;;;;;;;;;;5052283;28;20049;-63
2021/11/02 17:48:59;;;;;;;5.80;2.50;;;;;;;;;;5052569;28;20413;-63
2021/11/02 17:51:26;;;;;;;5.05;2.00;;;;;;;;;;5052401;28;20128;-62
2021/11/02 17:53:54;;;;;;;4.53;1.90;;;;;;;;;;5052358;28;20049;-62
2021/11/02 17:56:23;;;;;;;4.30;1.92;;;;;;;;;;5052234;28;20147;-63
2021/11/02 17:58:52;;;;;;;4.20;1.67;;;;;;;;;;5052344;28;20048;-62
2021/11/02 18:01:24;;;;;;;2.95;1.50;;;;;;;;;;5052285;28;20061;-63
2021/11/02 18:03:52;;;;;;;4.75;1.60;;;;;;;;;;5052580;28;20516;-62
2021/11/02 18:06:20;;;;;;;4.22;1.75;;;;;;;;;;5052085;28;20425;-62
2021/11/02 18:08:50;;;;;;;5.68;2.70;;;;;;;;;;5052416;28;20056;-62
2021/11/02 18:11:18;;;;;;;5.47;2.60;;;;;;;;;;5051858;28;20081;-63
2021/11/02 18:13:47;;;;;;;6.40;2.42;;;;;;;;;;5051931;28;20135;-63
2021/11/02 18:16:15;;;;;;;8.38;2.83;;;;;;;;;;5051680;28;20059;-63
2021/11/02 18:18:44;;;;;;;8.70;3.80;;;;;;;;;;5052353;28;20053;-63
2021/11/02 18:21:13;;;;;;;8.80;3.63;;;;;;;;;;5052227;28;20334;-63
2021/11/02 18:23:43;;;;;;;15.60;7.88;;;;;;;;;;5052017;28;20556;-63
2021/11/02 18:26:13;;;;;;;14.57;6.15;;;;;;;;;;5050864;28;20490;-63
2021/11/02 18:28:41;;;;;;;6.38;2.75;;;;;;;;;;5051388;28;20517;-63
2021/11/02 18:31:10;;;;;;;6.40;2.85;;;;;;;;;;5041268;28;20049;-62
2021/11/02 18:33:38;;;;;;;6.10;2.85;;;;;;;;;;5046135;28;20045;-63
2021/11/02 18:36:07;;;;;;;6.35;2.60;;;;;;;;;;5045368;28;20059;-63
2021/11/02 18:38:38;;;;;;;6.57;2.92;;;;;;;;;;5026826;28;20064;-67
2021/11/02 18:41:05;;;;;;;6.88;3.53;;;;;;;;;;5045975;28;20502;-71
2021/11/02 18:43:34;;;;;;;19.55;6.07;;;;;;;;;;5046526;28;20562;-61
2021/11/02 18:46:02;;;;;;;9.23;4.25;;;;;;;;;;5045692;28;20404;-62
2021/11/02 18:48:32;;;;;;;9.30;3.53;;;;;;;;;;5045360;28;20057;-62
2021/11/02 18:50:59;;;;;;;7.65;3.50;;;;;;;;;;5045169;28;20045;-62
2021/11/02 18:53:27;;;;;;;11.00;4.38;;;;;;;;;;5045595;28;20210;-62
2021/11/02 18:55:55;;;;;;;17.52;7.63;;;;;;;;;;5045408;28;20391;-61
2021/11/02 18:58:23;;;;;;;11.77;5.10;;;;;;;;;;5045593;28;20045;-62
2021/11/02 19:00:52;;;;;;;9.55;3.88;;;;;;;;;;5045746;28;20045;-65
2021/11/02 19:03:19;;;;;;;8.32;3.92;;;;;;;;;;5045832;28;20045;-64
2021/11/02 19:05:48;;;;;;;7.20;3.05;;;;;;;;;;5045257;28;20095;-63
2021/11/02 19:08:16;;;;;;;10.57;3.90;;;;;;;;;;5044794;28;20055;-63
2021/11/02 19:10:45;;;;;;;7.50;3.30;;;;;;;;;;5045130;28;20041;-62
2021/11/02 19:13:13;;;;;;;8.10;3.53;;;;;;;;;;5045374;28;20388;-63
2021/11/02 19:15:41;;;;;;;8.30;3.55;;;;;;;;;;5045093;28;20221;-63
2021/11/02 19:18:12;;;;;;;13.38;4.25;;;;;;;;;;5044904;28;20470;-63
2021/11/02 19:20:39;;;;;;;10.32;4.22;;;;;;;;;;5044608;28;20060;-63
2021/11/02 19:23:08;;;;;;;10.60;4.45;;;;;;;;;;5045253;28;20041;-63
2021/11/02 19:25:35;;;;;;;12.35;4.85;;;;;;;;;;5045334;28;20303;-63
2021/11/02 19:28:03;;;;;;;10.77;4.40;;;;;;;;;;5044584;28;20098;-62
2021/11/02 19:30:30;;;;;;;10.68;4.85;;;;;;;;;;5045183;28;20059;-62
2021/11/02 19:32:57;;;;;;;15.05;6.95;;;;;;;;;;5044908;28;20057;-62